createdAt,value
2022-08-17T00:00:34.350Z,11.00
2022-08-17T00:01:52.146Z,11.40
2022-08-17T00:03:06.006Z,10.05
2022-08-17T00:04:11.945Z,11.30
2022-08-17T00:05:15.793Z,10.90
2022-08-17T00:06:24.983Z,11.00
2022-08-17T00:07:27.784Z,11.10
2022-08-17T00:08:31.994Z,11.50
2022-08-17T00:09:34.669Z,11.25
2022-08-17T00:10:37.691Z,11.30
2022-08-17T00:11:42.878Z,10.93
2022-08-17T00:13:08.367Z,10.32
2022-08-17T00:14:16.863Z,10.65
2022-08-17T00:15:21.398Z,10.68
2022-08-17T00:16:55.906Z,11.15
2022-08-17T00:17:54.199Z,10.32
2022-08-17T00:19:07.449Z,11.73
2022-08-17T00:20:12.228Z,11.50
2022-08-17T00:21:16.450Z,11.20
2022-08-17T00:22:35.079Z,10.65
2022-08-17T00:23:47.677Z,11.00
2022-08-17T00:24:51.953Z,11.07
2022-08-17T00:25:55.208Z,10.25
2022-08-17T00:26:58.023Z,11.48
2022-08-17T00:28:00.708Z,11.75
2022-08-17T00:29:03.926Z,11.52
2022-08-17T00:30:09.274Z,11.70
2022-08-17T00:31:12.347Z,11.35
2022-08-17T00:33:10.928Z,11.10
2022-08-17T00:33:40.403Z,10.90
2022-08-17T00:34:43.149Z,10.35
2022-08-17T00:35:48.191Z,10.18
2022-08-17T00:36:51.042Z,11.20
2022-08-17T00:37:54.390Z,11.55
2022-08-17T00:38:56.973Z,11.73
2022-08-17T00:39:59.853Z,11.27
2022-08-17T00:41:12.212Z,10.52
2022-08-17T00:42:19.025Z,11.00
2022-08-17T00:43:30.315Z,10.80
2022-08-17T00:44:32.994Z,10.57
2022-08-17T00:45:35.522Z,10.63
2022-08-17T00:46:41.087Z,11.23
2022-08-17T00:47:44.286Z,10.70
2022-08-17T00:48:48.067Z,10.63
2022-08-17T00:49:50.803Z,11.07
2022-08-17T00:51:10.867Z,10.65
2022-08-17T00:52:16.800Z,11.50
2022-08-17T00:53:20.303Z,11.00
2022-08-17T00:54:27.684Z,11.65
2022-08-17T00:55:30.574Z,11.77
2022-08-17T00:56:38.858Z,10.13
2022-08-17T00:57:45.051Z,10.07
2022-08-17T00:58:49.739Z,10.65
2022-08-17T01:00:03.344Z,11.25
2022-08-17T01:01:07.947Z,11.25
2022-08-17T01:02:12.788Z,11.07
2022-08-17T01:03:19.578Z,10.65
2022-08-17T01:04:23.065Z,10.88
2022-08-17T01:05:30.147Z,11.18
2022-08-17T01:06:34.009Z,10.90
2022-08-17T01:07:38.125Z,10.35
2022-08-17T01:08:41.312Z,10.40
2022-08-17T01:09:44.714Z,10.95
2022-08-17T01:11:00.381Z,10.82
2022-08-17T01:12:09.195Z,11.18
2022-08-17T01:13:12.903Z,11.30
2022-08-17T01:14:15.804Z,10.18
2022-08-17T01:15:18.649Z,10.95
2022-08-17T01:16:30.016Z,11.07
2022-08-17T01:17:33.479Z,10.27
2022-08-17T01:18:36.327Z,10.70
2022-08-17T01:19:41.393Z,10.10
2022-08-17T01:20:53.865Z,10.70
2022-08-17T01:22:11.820Z,10.55
2022-08-17T01:23:20.919Z,10.18
2022-08-17T01:24:23.917Z,10.27
2022-08-17T01:25:28.436Z,11.20
2022-08-17T01:26:33.104Z,10.75
2022-08-17T01:27:36.885Z,10.10
2022-08-17T01:28:54.926Z,11.70
2022-08-17T01:30:01.632Z,11.32
2022-08-17T01:31:06.359Z,10.85
2022-08-17T01:32:09.356Z,10.30
2022-08-17T01:33:12.843Z,10.07
2022-08-17T01:34:16.952Z,10.70
2022-08-17T01:35:20.196Z,11.13
2022-08-17T01:36:22.790Z,11.15
2022-08-17T01:37:33.414Z,11.20
2022-08-17T01:39:48.910Z,10.35
2022-08-17T01:40:57.454Z,10.98
2022-08-17T01:42:29.935Z,10.85
2022-08-17T01:43:39.106Z,12.10
2022-08-17T01:44:41.688Z,10.77
2022-08-17T01:45:47.104Z,10.80
2022-08-17T01:46:49.830Z,11.52
2022-08-17T01:47:53.931Z,11.57
2022-08-17T01:48:57.687Z,11.10
2022-08-17T01:50:09.550Z,11.38
2022-08-17T01:51:12.281Z,10.95
2022-08-17T01:52:15.360Z,11.15
2022-08-17T01:53:29.495Z,10.80
2022-08-17T01:54:32.271Z,10.63
2022-08-17T01:55:46.464Z,10.70
2022-08-17T01:56:50.846Z,11.20
2022-08-17T01:57:53.838Z,12.32
2022-08-17T01:58:57.284Z,11.18
2022-08-17T02:00:00.110Z,11.23
2022-08-17T02:01:03.299Z,10.95
2022-08-17T02:02:07.472Z,10.73
2022-08-17T02:03:10.635Z,11.18
2022-08-17T02:04:13.569Z,10.57
2022-08-17T02:05:16.426Z,10.98
2022-08-17T02:06:26.998Z,11.65
2022-08-17T02:07:30.956Z,10.68
2022-08-17T02:08:38.873Z,11.98
2022-08-17T02:09:44.047Z,11.57
2022-08-17T02:10:55.618Z,11.98
2022-08-17T02:12:37.717Z,11.70
2022-08-17T02:13:23.342Z,12.18
2022-08-17T02:14:26.653Z,11.77
2022-08-17T02:15:29.427Z,11.35
2022-08-17T02:16:37.872Z,10.82
2022-08-17T02:17:41.048Z,11.27
2022-08-17T02:18:44.441Z,12.07
2022-08-17T02:19:47.083Z,11.90
2022-08-17T02:20:49.915Z,11.20
2022-08-17T02:21:53.891Z,11.00
2022-08-17T02:22:56.744Z,11.50
2022-08-17T02:23:59.565Z,11.40
2022-08-17T02:25:03.789Z,11.07
2022-08-17T02:26:07.303Z,11.63
2022-08-17T02:27:09.883Z,11.50
2022-08-17T02:28:12.665Z,11.32
2022-08-17T02:29:15.858Z,10.77
2022-08-17T02:30:59.915Z,11.57
2022-08-17T02:31:42.229Z,11.43
2022-08-17T02:32:44.919Z,11.27
2022-08-17T02:33:56.631Z,11.43
2022-08-17T02:35:08.900Z,10.95
2022-08-17T02:36:12.894Z,11.80
2022-08-17T02:37:17.927Z,10.63
2022-08-17T02:38:20.550Z,11.63
2022-08-17T02:39:23.299Z,10.43
2022-08-17T02:40:36.105Z,12.45
2022-08-17T02:41:40.147Z,10.68
2022-08-17T02:42:44.332Z,11.43
2022-08-17T02:43:47.019Z,10.38
2022-08-17T02:44:49.767Z,10.93
2022-08-17T02:45:52.570Z,10.55
2022-08-17T02:46:55.525Z,11.77
2022-08-17T02:47:58.416Z,11.55
2022-08-17T02:49:01.258Z,10.43
2022-08-17T02:50:05.665Z,11.68
2022-08-17T02:51:09.238Z,10.32
2022-08-17T02:52:11.756Z,11.10
2022-08-17T02:53:14.609Z,11.23
2022-08-17T02:54:39.953Z,10.27
2022-08-17T02:55:42.007Z,11.43
2022-08-17T02:56:45.034Z,11.10
2022-08-17T02:57:48.608Z,11.20
2022-08-17T02:58:51.665Z,11.38
2022-08-17T02:59:54.311Z,10.93
2022-08-17T03:00:57.152Z,10.85
2022-08-17T03:02:00.042Z,11.20
2022-08-17T03:03:05.249Z,10.95
2022-08-17T03:04:08.059Z,10.90
2022-08-17T03:05:12.757Z,10.75
2022-08-17T03:06:15.404Z,10.73
2022-08-17T03:07:20.342Z,10.85
2022-08-17T03:08:23.508Z,11.27
2022-08-17T03:09:26.531Z,10.40
2022-08-17T03:10:29.929Z,11.00
2022-08-17T03:11:32.780Z,12.23
2022-08-17T03:12:39.981Z,11.93
2022-08-17T03:13:42.610Z,12.50
2022-08-17T03:14:45.447Z,11.50
2022-08-17T03:15:48.834Z,11.98
2022-08-17T03:16:51.317Z,11.68
2022-08-17T03:17:55.465Z,11.88
2022-08-17T03:18:58.124Z,11.65
2022-08-17T03:20:00.850Z,12.35
2022-08-17T03:21:04.546Z,11.52
2022-08-17T03:22:37.377Z,11.32
2022-08-17T03:23:32.897Z,11.57
2022-08-17T03:24:35.607Z,12.57
2022-08-17T03:25:43.432Z,12.07
2022-08-17T03:26:46.828Z,12.68
2022-08-17T03:27:50.267Z,12.23
2022-08-17T03:28:54.596Z,11.30
2022-08-17T03:29:57.332Z,12.07
2022-08-17T03:30:59.979Z,11.48
2022-08-17T03:32:14.350Z,12.57
2022-08-17T03:33:17.569Z,10.68
2022-08-17T03:34:20.265Z,11.38
2022-08-17T03:35:26.948Z,11.40
2022-08-17T03:36:29.676Z,10.60
2022-08-17T03:37:34.131Z,10.55
2022-08-17T03:38:39.375Z,11.85
2022-08-17T03:39:43.061Z,11.65
2022-08-17T03:40:56.997Z,12.27
2022-08-17T03:42:31.900Z,11.70
2022-08-17T03:43:35.830Z,11.77
2022-08-17T03:44:38.527Z,11.10
2022-08-17T03:46:01.179Z,11.73
2022-08-17T03:47:24.448Z,12.27
2022-08-17T03:48:46.169Z,11.73
2022-08-17T03:50:07.552Z,11.63
2022-08-17T03:51:42.646Z,10.77
2022-08-17T03:53:04.110Z,11.50
2022-08-17T03:54:25.982Z,11.82
2022-08-17T03:56:00.575Z,11.30
2022-08-17T03:57:06.232Z,12.00
2022-08-17T03:58:08.899Z,13.10
2022-08-17T03:59:20.815Z,11.10
2022-08-17T04:00:25.140Z,12.65
2022-08-17T04:01:27.989Z,11.77
2022-08-17T04:02:32.936Z,11.77
2022-08-17T04:03:35.952Z,12.00
2022-08-17T04:04:39.287Z,12.90
2022-08-17T04:05:42.087Z,14.27
2022-08-17T04:06:44.859Z,13.60
2022-08-17T04:07:47.984Z,13.50
2022-08-17T04:08:50.602Z,13.35
2022-08-17T04:09:53.251Z,13.98
2022-08-17T04:10:56.689Z,13.75
2022-08-17T04:12:00.299Z,13.80
2022-08-17T04:13:07.194Z,14.23
2022-08-17T04:14:10.004Z,14.68
2022-08-17T04:15:13.334Z,13.98
2022-08-17T04:16:16.032Z,13.80
2022-08-17T04:17:18.604Z,13.50
2022-08-17T04:18:22.640Z,14.15
2022-08-17T04:19:25.332Z,14.07
2022-08-17T04:20:28.525Z,14.15
2022-08-17T04:21:31.234Z,14.75
2022-08-17T04:22:34.474Z,12.65
2022-08-17T04:23:38.030Z,12.88
2022-08-17T04:24:40.811Z,13.23
2022-08-17T04:25:49.313Z,14.18
2022-08-17T04:26:54.347Z,14.35
2022-08-17T04:27:57.360Z,13.48
2022-08-17T04:29:00.043Z,13.95
2022-08-17T04:30:03.874Z,13.75
2022-08-17T04:31:06.658Z,13.30
2022-08-17T04:32:10.364Z,14.23
2022-08-17T04:33:16.033Z,13.57
2022-08-17T04:34:19.931Z,13.68
2022-08-17T04:35:26.417Z,12.85
2022-08-17T04:36:29.026Z,13.48
2022-08-17T04:37:31.820Z,12.35
2022-08-17T04:38:37.260Z,12.20
2022-08-17T04:39:39.980Z,13.00
2022-08-17T04:41:01.614Z,11.55
2022-08-17T04:42:16.986Z,13.80
2022-08-17T04:43:22.107Z,12.52
2022-08-17T04:44:36.763Z,12.55
2022-08-17T04:45:55.088Z,13.57
2022-08-17T04:46:58.624Z,12.60
2022-08-17T04:48:01.636Z,11.50
2022-08-17T04:49:07.196Z,12.52
2022-08-17T04:50:10.160Z,13.05
2022-08-17T04:51:16.971Z,12.85
2022-08-17T04:52:29.737Z,12.50
2022-08-17T04:53:45.990Z,12.45
2022-08-17T04:54:57.020Z,11.80
2022-08-17T04:55:59.752Z,12.18
2022-08-17T04:57:02.639Z,12.05
2022-08-17T04:58:05.552Z,12.07
2022-08-17T04:59:11.657Z,12.63
2022-08-17T05:00:14.605Z,11.90
2022-08-17T05:01:23.614Z,11.57
2022-08-17T05:02:27.098Z,12.03
2022-08-17T05:03:30.595Z,12.25
2022-08-17T05:04:35.029Z,10.85
2022-08-17T05:05:40.105Z,10.98
2022-08-17T05:06:42.903Z,11.98
2022-08-17T05:07:45.621Z,11.55
2022-08-17T05:08:48.434Z,10.10
2022-08-17T05:09:51.106Z,10.38
2022-08-17T05:10:53.799Z,9.75
2022-08-17T05:11:56.473Z,10.20
2022-08-17T05:13:15.541Z,10.55
2022-08-17T05:14:18.243Z,9.18
2022-08-17T05:15:20.820Z,10.00
2022-08-17T05:16:26.750Z,9.88
2022-08-17T05:17:29.514Z,9.13
2022-08-17T05:18:32.734Z,9.02
2022-08-17T05:19:35.499Z,8.88
2022-08-17T05:20:41.432Z,9.70
2022-08-17T05:21:44.185Z,9.70
2022-08-17T05:22:51.626Z,8.85
2022-08-17T05:23:56.853Z,9.23
2022-08-17T05:25:01.762Z,9.50
2022-08-17T05:26:07.055Z,9.00
2022-08-17T05:27:16.777Z,9.02
2022-08-17T05:28:27.473Z,8.85
2022-08-17T05:29:34.451Z,8.82
2022-08-17T05:30:40.846Z,9.00
2022-08-17T05:31:43.617Z,7.75
2022-08-17T05:33:05.016Z,8.15
2022-08-17T05:34:07.798Z,8.50
2022-08-17T05:35:10.979Z,8.23
2022-08-17T05:36:42.331Z,8.38
2022-08-17T05:37:39.167Z,8.95
2022-08-17T05:38:42.242Z,8.07
2022-08-17T05:39:45.120Z,8.50
2022-08-17T05:40:48.131Z,8.55
2022-08-17T05:41:50.943Z,9.18
2022-08-17T05:43:08.416Z,8.77
2022-08-17T05:44:11.029Z,8.20
2022-08-17T05:45:15.961Z,8.05
2022-08-17T05:46:29.164Z,8.88
2022-08-17T05:47:31.932Z,8.07
2022-08-17T05:48:42.403Z,7.97
2022-08-17T05:49:45.234Z,7.63
2022-08-17T05:51:05.197Z,7.45
2022-08-17T05:52:38.999Z,7.75
2022-08-17T05:53:56.974Z,7.15
2022-08-17T05:55:13.010Z,7.15
2022-08-17T05:56:39.470Z,7.63
2022-08-17T05:58:03.921Z,7.40
2022-08-17T05:59:23.153Z,8.00
2022-08-17T06:00:31.299Z,7.85
2022-08-17T06:01:47.990Z,7.22
2022-08-17T06:03:27.577Z,7.25
2022-08-17T06:04:52.928Z,6.55
2022-08-17T06:06:32.620Z,6.35
2022-08-17T06:07:49.734Z,7.38
2022-08-17T06:09:24.754Z,6.93
2022-08-17T06:10:36.224Z,6.85
2022-08-17T06:12:01.484Z,7.07
2022-08-17T06:13:18.942Z,6.97
2022-08-17T06:14:46.330Z,7.20
2022-08-17T06:15:55.371Z,6.45
2022-08-17T06:17:05.853Z,6.47
2022-08-17T06:18:10.486Z,6.70
2022-08-17T06:19:17.548Z,6.45
2022-08-17T06:20:20.142Z,6.25
2022-08-17T06:21:28.426Z,6.57
2022-08-17T06:22:37.905Z,6.28
2022-08-17T06:23:48.878Z,5.85
2022-08-17T06:24:58.226Z,5.90
2022-08-17T06:26:09.016Z,5.83
2022-08-17T06:27:20.475Z,6.70
2022-08-17T06:28:31.941Z,6.55
2022-08-17T06:29:53.237Z,6.45
2022-08-17T06:31:01.085Z,6.30
2022-08-17T06:32:06.102Z,5.70
2022-08-17T06:33:14.780Z,5.53
2022-08-17T06:34:17.533Z,5.63
2022-08-17T06:35:33.541Z,5.97
2022-08-17T06:36:50.038Z,5.97
2022-08-17T06:38:34.963Z,5.63
2022-08-17T06:39:55.193Z,5.53
2022-08-17T06:41:06.738Z,5.80
2022-08-17T06:43:05.054Z,6.03
2022-08-17T06:44:49.660Z,5.93
2022-08-17T06:45:49.353Z,6.00
2022-08-17T06:46:58.202Z,5.90
2022-08-17T06:48:24.874Z,5.30
2022-08-17T06:49:40.217Z,6.13
2022-08-17T06:50:49.834Z,6.50
2022-08-17T06:52:43.465Z,6.47
2022-08-17T06:53:53.672Z,5.50
2022-08-17T06:55:09.650Z,5.60
2022-08-17T06:56:53.844Z,5.47
2022-08-17T06:58:05.257Z,6.05
2022-08-17T06:59:53.227Z,5.32
2022-08-17T07:00:58.124Z,5.57
2022-08-17T07:02:05.668Z,4.80
2022-08-17T07:03:09.039Z,4.72
2022-08-17T07:04:19.684Z,4.95
2022-08-17T07:05:27.376Z,4.93
2022-08-17T07:06:37.716Z,4.85
2022-08-17T07:08:03.777Z,4.57
2022-08-17T07:09:08.636Z,4.65
2022-08-17T07:10:11.366Z,4.45
2022-08-17T07:11:28.243Z,5.03
2022-08-17T07:12:38.675Z,4.60
2022-08-17T07:13:51.505Z,4.30
2022-08-17T07:15:05.573Z,3.85
2022-08-17T07:16:31.605Z,4.50
2022-08-17T07:17:46.993Z,4.32
2022-08-17T07:18:59.346Z,3.72
2022-08-17T07:20:09.904Z,4.40
2022-08-17T07:21:48.270Z,4.20
2022-08-17T07:23:08.743Z,4.28
2022-08-17T07:24:33.295Z,4.30
2022-08-17T07:25:36.510Z,3.95
2022-08-17T07:26:39.220Z,4.32
2022-08-17T07:28:03.886Z,4.10
2022-08-17T07:29:10.760Z,4.15
2022-08-17T07:30:25.636Z,4.25
2022-08-17T07:31:30.584Z,3.60
2022-08-17T07:32:48.217Z,3.45
2022-08-17T07:34:04.320Z,4.00
2022-08-17T07:35:11.133Z,3.83
2022-08-17T07:36:29.961Z,3.85
2022-08-17T07:37:33.517Z,3.30
2022-08-17T07:38:36.266Z,3.50
2022-08-17T07:40:14.753Z,3.70
2022-08-17T07:41:06.923Z,3.60
2022-08-17T07:42:10.691Z,3.83
2022-08-17T07:43:23.028Z,4.10
2022-08-17T07:44:26.612Z,3.35
2022-08-17T07:45:49.224Z,3.70
2022-08-17T07:47:22.567Z,3.38
2022-08-17T07:48:27.252Z,3.25
2022-08-17T07:49:35.261Z,3.97
2022-08-17T07:50:37.915Z,3.97
2022-08-17T07:52:48.534Z,3.03
2022-08-17T07:53:32.123Z,3.00
2022-08-17T07:54:41.068Z,3.33
2022-08-17T07:55:45.869Z,3.80
2022-08-17T07:57:00.462Z,3.47
2022-08-17T07:58:03.706Z,3.30
2022-08-17T07:59:33.382Z,3.28
2022-08-17T08:00:37.376Z,3.05
2022-08-17T08:01:42.536Z,3.17
2022-08-17T08:02:57.845Z,3.38
2022-08-17T08:04:01.016Z,2.70
2022-08-17T08:05:30.798Z,3.28
2022-08-17T08:06:52.831Z,3.33
2022-08-17T08:08:02.226Z,3.42
2022-08-17T08:09:04.957Z,3.08
2022-08-17T08:10:14.004Z,3.20
2022-08-17T08:11:30.431Z,3.40
2022-08-17T08:12:47.684Z,2.83
2022-08-17T08:13:50.282Z,3.22
2022-08-17T08:15:19.096Z,2.90
2022-08-17T08:16:32.074Z,3.40
2022-08-17T08:17:45.484Z,3.10
2022-08-17T08:18:56.085Z,3.58
2022-08-17T08:20:00.849Z,3.05
2022-08-17T08:21:52.271Z,3.38
2022-08-17T08:23:25.676Z,3.35
2022-08-17T08:25:20.817Z,3.25
2022-08-17T08:26:49.162Z,3.33
2022-08-17T08:28:28.377Z,3.63
2022-08-17T08:29:53.498Z,3.33
2022-08-17T08:31:42.032Z,3.15
2022-08-17T08:32:48.614Z,3.70
2022-08-17T08:34:03.011Z,2.95
2022-08-17T08:35:08.005Z,3.47
2022-08-17T08:37:02.030Z,3.30
2022-08-17T08:38:24.861Z,3.22
2022-08-17T08:39:55.997Z,3.55
2022-08-17T08:41:13.287Z,3.28
2022-08-17T08:42:34.752Z,3.30
2022-08-17T08:44:02.765Z,3.00
2022-08-17T08:45:21.989Z,2.80
2022-08-17T08:46:34.911Z,3.33
2022-08-17T08:48:22.705Z,2.90
2022-08-17T08:50:03.235Z,3.30
2022-08-17T08:51:29.112Z,3.05
2022-08-17T08:52:49.297Z,2.95
2022-08-17T08:54:12.326Z,3.10
2022-08-17T08:55:34.599Z,3.35
2022-08-17T08:57:11.534Z,3.10
2022-08-17T08:58:41.350Z,2.97
2022-08-17T09:00:09.033Z,2.72
2022-08-17T09:01:28.823Z,2.80
2022-08-17T09:03:31.767Z,2.95
2022-08-17T09:05:15.001Z,3.15
2022-08-17T09:06:45.425Z,2.75
2022-08-17T09:08:00.790Z,3.85
2022-08-17T09:09:16.470Z,3.42
2022-08-17T09:10:19.586Z,3.53
2022-08-17T09:11:32.337Z,3.47
2022-08-17T09:12:47.838Z,3.13
2022-08-17T09:14:07.156Z,3.53
2022-08-17T09:15:35.350Z,3.25
2022-08-17T09:16:43.530Z,2.90
2022-08-17T09:18:59.399Z,3.80
2022-08-17T09:19:57.255Z,3.20
2022-08-17T09:21:06.632Z,3.50
2022-08-17T09:22:30.504Z,3.60
2022-08-17T09:23:42.470Z,3.05
2022-08-17T09:24:57.288Z,3.78
2022-08-17T09:26:03.232Z,2.75
2022-08-17T09:27:16.071Z,2.95
2022-08-17T09:28:21.501Z,2.78
2022-08-17T09:29:25.620Z,2.97
2022-08-17T09:30:50.886Z,2.92
2022-08-17T09:31:58.849Z,2.72
2022-08-17T09:33:06.705Z,3.35
2022-08-17T09:34:14.216Z,2.90
2022-08-17T09:35:36.733Z,2.53
2022-08-17T09:36:52.557Z,2.95
2022-08-17T09:38:21.764Z,2.83
2022-08-17T09:39:47.600Z,2.50
2022-08-17T09:41:32.782Z,2.47
2022-08-17T09:42:40.673Z,2.60
2022-08-17T09:44:22.663Z,2.38
2022-08-17T09:45:37.494Z,2.60
2022-08-17T09:46:48.664Z,2.80
2022-08-17T09:48:02.772Z,2.35
2022-08-17T09:49:23.165Z,2.38
2022-08-17T09:51:05.890Z,2.40
2022-08-17T09:52:29.896Z,2.65
2022-08-17T09:53:32.777Z,2.20
2022-08-17T09:54:39.491Z,2.45
2022-08-17T09:56:06.544Z,2.72
2022-08-17T09:57:32.128Z,2.13
2022-08-17T09:59:05.126Z,2.17
2022-08-17T10:00:20.086Z,2.30
2022-08-17T10:01:31.488Z,2.55
2022-08-17T10:02:40.687Z,2.70
2022-08-17T10:04:05.778Z,2.45
2022-08-17T10:05:18.115Z,2.50
2022-08-17T10:06:25.165Z,2.47
2022-08-17T10:07:41.014Z,2.83
2022-08-17T10:08:55.806Z,2.10
2022-08-17T10:10:15.279Z,2.80
2022-08-17T10:11:33.717Z,2.35
2022-08-17T10:12:47.196Z,2.80
2022-08-17T10:14:37.694Z,2.50
2022-08-17T10:15:55.923Z,2.13
2022-08-17T10:17:08.173Z,2.30
2022-08-17T10:18:37.817Z,1.90
2022-08-17T10:19:52.249Z,2.42
2022-08-17T10:21:34.344Z,1.90
2022-08-17T10:23:13.115Z,2.15
2022-08-17T10:25:21.330Z,2.25
2022-08-17T10:26:07.202Z,2.33
2022-08-17T10:27:15.669Z,2.20
2022-08-17T10:28:25.829Z,2.10
2022-08-17T10:29:52.742Z,1.88
2022-08-17T10:31:16.729Z,2.22
2022-08-17T10:32:45.340Z,2.00
2022-08-17T10:34:00.974Z,2.05
2022-08-17T10:35:16.734Z,1.83
2022-08-17T10:36:43.331Z,2.30
2022-08-17T10:38:09.027Z,1.98
2022-08-17T10:39:30.762Z,2.25
2022-08-17T10:40:52.173Z,1.75
2022-08-17T10:41:58.964Z,2.10
2022-08-17T10:43:42.116Z,2.08
2022-08-17T10:45:26.294Z,1.65
2022-08-17T10:46:55.621Z,2.00
2022-08-17T10:48:05.125Z,2.13
2022-08-17T10:49:17.757Z,2.15
2022-08-17T10:51:00.701Z,2.22
2022-08-17T10:52:20.054Z,2.08
2022-08-17T10:53:31.864Z,2.03
2022-08-17T10:54:38.958Z,2.05
2022-08-17T10:56:13.586Z,2.20
2022-08-17T10:57:34.426Z,1.92
2022-08-17T10:58:55.015Z,2.10
2022-08-17T10:59:59.521Z,1.60
2022-08-17T11:01:04.034Z,1.90
2022-08-17T11:02:20.300Z,2.13
2022-08-17T11:03:24.788Z,1.52
2022-08-17T11:04:51.710Z,2.35
2022-08-17T11:06:18.375Z,2.42
2022-08-17T11:07:33.232Z,2.15
2022-08-17T11:08:48.763Z,1.90
2022-08-17T11:10:28.363Z,1.75
2022-08-17T11:11:58.844Z,1.85
2022-08-17T11:13:26.721Z,2.03
2022-08-17T11:14:51.578Z,2.28
2022-08-17T11:16:27.368Z,2.50
2022-08-17T11:17:49.856Z,2.30
2022-08-17T11:19:32.118Z,2.00
2022-08-17T11:20:56.540Z,2.38
2022-08-17T11:22:31.295Z,2.30
2022-08-17T11:23:41.821Z,2.35
2022-08-17T11:24:51.562Z,1.92
2022-08-17T11:27:21.827Z,2.38
2022-08-17T11:28:34.625Z,2.20
2022-08-17T11:29:58.166Z,2.30
2022-08-17T11:31:38.396Z,2.15
2022-08-17T11:32:52.886Z,2.20
2022-08-17T11:34:02.141Z,2.60
2022-08-17T11:35:23.464Z,2.80
2022-08-17T11:36:53.247Z,2.55
2022-08-17T11:38:19.933Z,2.53
2022-08-17T11:39:28.849Z,2.20
2022-08-17T11:40:55.631Z,2.90
2022-08-17T11:42:17.923Z,2.58
2022-08-17T11:43:52.175Z,2.28
2022-08-17T11:45:32.397Z,2.80
2022-08-17T11:47:24.603Z,2.78
2022-08-17T11:49:13.099Z,3.03
2022-08-17T11:50:56.378Z,2.70
2022-08-17T11:52:01.839Z,2.85
2022-08-17T11:53:05.568Z,2.72
2022-08-17T11:54:33.847Z,3.13
2022-08-17T11:55:57.019Z,2.38
2022-08-17T11:57:02.323Z,3.17
2022-08-17T11:58:23.857Z,3.03
2022-08-17T11:59:43.852Z,3.05
2022-08-17T12:00:46.379Z,2.97
2022-08-17T12:01:57.271Z,3.00
2022-08-17T12:03:22.552Z,3.33
2022-08-17T12:04:34.173Z,2.28
2022-08-17T12:05:37.139Z,3.15
2022-08-17T12:06:47.239Z,2.97
2022-08-17T12:08:17.806Z,2.88
2022-08-17T12:09:26.803Z,3.17
2022-08-17T12:10:34.395Z,3.67
2022-08-17T12:11:58.665Z,2.95
2022-08-17T12:13:15.313Z,2.72
2022-08-17T12:14:40.073Z,3.65
2022-08-17T12:15:51.494Z,2.78
2022-08-17T12:17:09.290Z,3.10
2022-08-17T12:18:20.400Z,2.78
2022-08-17T12:19:23.831Z,3.30
2022-08-17T12:20:40.332Z,3.20
2022-08-17T12:21:46.417Z,4.15
2022-08-17T12:23:05.564Z,3.47
2022-08-17T12:24:31.553Z,3.78
2022-08-17T12:25:36.555Z,2.92
2022-08-17T12:26:40.692Z,3.20
2022-08-17T12:28:05.286Z,3.85
2022-08-17T12:29:17.908Z,3.40
2022-08-17T12:30:37.998Z,3.70
2022-08-17T12:31:47.268Z,3.40
2022-08-17T12:32:50.216Z,3.90
2022-08-17T12:33:53.414Z,4.38
2022-08-17T12:34:56.213Z,3.58
2022-08-17T12:36:05.484Z,4.07
2022-08-17T12:37:25.010Z,3.60
2022-08-17T12:38:33.327Z,3.83
2022-08-17T12:39:51.384Z,3.47
2022-08-17T12:40:58.537Z,3.95
2022-08-17T12:42:02.877Z,4.47
2022-08-17T12:43:11.786Z,3.70
2022-08-17T12:44:23.881Z,3.45
2022-08-17T12:45:32.723Z,3.75
2022-08-17T12:47:07.111Z,3.90
2022-08-17T12:48:12.548Z,3.80
2022-08-17T12:49:22.927Z,3.63
2022-08-17T12:50:28.734Z,3.60
2022-08-17T12:51:34.381Z,3.72
2022-08-17T12:52:42.407Z,3.60
2022-08-17T12:53:53.177Z,4.00
2022-08-17T12:55:00.217Z,3.75
2022-08-17T12:56:08.340Z,3.65
2022-08-17T12:57:21.759Z,2.97
2022-08-17T12:58:28.569Z,3.50
2022-08-17T12:59:33.156Z,3.33
2022-08-17T13:00:47.440Z,3.25
2022-08-17T13:01:51.005Z,4.05
2022-08-17T13:03:19.435Z,3.97
2022-08-17T13:04:22.109Z,3.22
2022-08-17T13:05:28.904Z,3.55
2022-08-17T13:06:36.782Z,3.42
2022-08-17T13:07:42.741Z,3.47
2022-08-17T13:08:50.311Z,3.78
2022-08-17T13:09:53.343Z,3.78
2022-08-17T13:11:17.895Z,3.63
2022-08-17T13:12:27.904Z,3.95
2022-08-17T13:13:36.100Z,3.90
2022-08-17T13:14:45.759Z,4.20
2022-08-17T13:16:01.530Z,4.30
2022-08-17T13:17:09.883Z,3.72
2022-08-17T13:18:41.685Z,4.15
2022-08-17T13:19:49.422Z,4.03
2022-08-17T13:20:54.232Z,3.65
2022-08-17T13:22:01.782Z,3.40
2022-08-17T13:23:11.852Z,3.47
2022-08-17T13:24:19.733Z,3.25
2022-08-17T13:25:22.531Z,3.42
2022-08-17T13:26:36.062Z,3.70
2022-08-17T13:27:42.303Z,3.75
2022-08-17T13:28:48.683Z,3.80
2022-08-17T13:29:59.670Z,3.90
2022-08-17T13:31:22.362Z,3.95
2022-08-17T13:32:31.148Z,3.08
2022-08-17T13:33:43.467Z,3.40
2022-08-17T13:35:13.811Z,4.07
2022-08-17T13:36:30.115Z,4.13
2022-08-17T13:37:35.439Z,3.63
2022-08-17T13:38:49.696Z,3.90
2022-08-17T13:40:10.740Z,3.70
2022-08-17T13:41:36.073Z,3.78
2022-08-17T13:42:54.171Z,3.58
2022-08-17T13:43:57.173Z,4.10
2022-08-17T13:45:00.802Z,4.97
2022-08-17T13:46:17.488Z,3.90
2022-08-17T13:47:21.067Z,4.10
2022-08-17T13:48:26.948Z,4.07
2022-08-17T13:49:41.910Z,4.53
2022-08-17T13:50:57.233Z,4.30
2022-08-17T13:52:00.347Z,4.40
2022-08-17T13:53:18.584Z,4.07
2022-08-17T13:54:29.464Z,3.90
2022-08-17T13:55:32.245Z,4.20
2022-08-17T13:57:08.092Z,4.55
2022-08-17T13:58:10.872Z,4.28
2022-08-17T13:59:54.300Z,5.00
2022-08-17T14:00:48.400Z,4.45
2022-08-17T14:01:54.120Z,4.35
2022-08-17T14:02:58.681Z,4.90
2022-08-17T14:04:05.076Z,4.43
2022-08-17T14:05:08.308Z,3.97
2022-08-17T14:06:53.277Z,4.78
2022-08-17T14:07:40.280Z,4.45
2022-08-17T14:08:43.297Z,4.10
2022-08-17T14:09:51.890Z,4.68
2022-08-17T14:10:58.382Z,4.25
2022-08-17T14:12:02.425Z,5.03
2022-08-17T14:13:06.723Z,4.80
2022-08-17T14:14:09.513Z,4.68
2022-08-17T14:15:17.629Z,4.35
2022-08-17T14:16:20.809Z,4.13
2022-08-17T14:17:24.914Z,4.60
2022-08-17T14:18:55.448Z,4.03
2022-08-17T14:19:51.195Z,4.55
2022-08-17T14:20:56.710Z,5.10
2022-08-17T14:22:00.604Z,4.90
2022-08-17T14:23:03.203Z,4.50
2022-08-17T14:24:10.470Z,4.45
2022-08-17T14:25:14.713Z,4.90
2022-08-17T14:26:17.919Z,4.55
2022-08-17T14:27:21.113Z,4.50
2022-08-17T14:28:24.737Z,4.68
2022-08-17T14:29:32.447Z,4.55
2022-08-17T14:30:35.777Z,4.93
2022-08-17T14:31:39.179Z,5.00
2022-08-17T14:32:42.235Z,4.50
2022-08-17T14:33:44.961Z,5.05
2022-08-17T14:34:49.742Z,4.70
2022-08-17T14:35:53.603Z,4.47
2022-08-17T14:36:57.099Z,4.45
2022-08-17T14:38:00.179Z,4.22
2022-08-17T14:39:02.919Z,4.68
2022-08-17T14:40:09.351Z,4.30
2022-08-17T14:41:12.243Z,4.45
2022-08-17T14:42:15.652Z,4.35
2022-08-17T14:43:18.799Z,4.80
2022-08-17T14:44:21.641Z,4.38
2022-08-17T14:45:30.155Z,4.35
2022-08-17T14:46:35.018Z,4.45
2022-08-17T14:47:40.347Z,4.05
2022-08-17T14:48:42.999Z,5.03
2022-08-17T14:49:48.304Z,3.75
2022-08-17T14:50:51.030Z,4.53
2022-08-17T14:51:54.011Z,4.28
2022-08-17T14:52:57.966Z,4.50
2022-08-17T14:54:01.290Z,4.95
2022-08-17T14:55:04.595Z,4.30
2022-08-17T14:56:07.315Z,4.55
2022-08-17T14:57:23.683Z,4.90
2022-08-17T14:58:33.090Z,3.85
2022-08-17T14:59:36.149Z,3.45
2022-08-17T15:00:39.791Z,3.72
2022-08-17T15:01:43.055Z,4.28
2022-08-17T15:02:58.458Z,4.47
2022-08-17T15:04:01.419Z,4.40
2022-08-17T15:05:05.993Z,4.55
2022-08-17T15:06:09.464Z,4.40
2022-08-17T15:07:12.421Z,4.53
2022-08-17T15:08:16.707Z,4.53
2022-08-17T15:09:19.557Z,4.03
2022-08-17T15:10:23.414Z,4.80
2022-08-17T15:11:28.659Z,4.68
2022-08-17T15:12:33.769Z,4.68
2022-08-17T15:13:37.256Z,4.65
2022-08-17T15:14:55.101Z,4.97
2022-08-17T15:15:59.912Z,4.28
2022-08-17T15:17:03.750Z,4.55
2022-08-17T15:18:08.354Z,4.63
2022-08-17T15:19:11.292Z,4.97
2022-08-17T15:20:17.731Z,4.30
2022-08-17T15:21:20.714Z,4.60
2022-08-17T15:22:27.192Z,4.80
2022-08-17T15:23:32.256Z,4.38
2022-08-17T15:24:34.951Z,4.38
2022-08-17T15:25:37.653Z,5.22
2022-08-17T15:26:41.129Z,4.50
2022-08-17T15:27:46.113Z,4.80
2022-08-17T15:28:49.973Z,4.78
2022-08-17T15:29:57.144Z,4.30
2022-08-17T15:30:59.816Z,4.38
2022-08-17T15:32:02.722Z,5.00
2022-08-17T15:33:05.561Z,4.32
2022-08-17T15:34:08.793Z,5.07
2022-08-17T15:35:12.938Z,4.32
2022-08-17T15:36:16.366Z,4.18
2022-08-17T15:37:19.262Z,5.18
2022-08-17T15:38:25.717Z,4.35
2022-08-17T15:39:28.828Z,4.18
2022-08-17T15:40:31.692Z,4.63
2022-08-17T15:41:40.738Z,4.63
2022-08-17T15:42:45.006Z,4.72
2022-08-17T15:43:50.446Z,4.07
2022-08-17T15:44:56.613Z,4.32
2022-08-17T15:46:02.970Z,4.55